sensor_id;sensor_type;location;lat;lon;timestamp;temperature;humidity
16523;DHT22;19889;52.546;13.348;2022-12-18T00:00:56;-1.40;99.90
16523;DHT22;19889;52.546;13.348;2022-12-18T00:03:25;-1.60;99.90
16523;DHT22;19889;52.546;13.348;2022-12-18T00:05:52;-1.60;99.90
16523;DHT22;19889;52.546;13.348;2022-12-18T00:08:19;-1.60;99.90
16523;DHT22;19889;52.546;13.348;2022-12-18T00:10:46;-1.60;99.90
16523;DHT22;19889;52.546;13.348;2022-12-18T00:13:13;-1.20;99.90
16523;DHT22;19889;52.546;13.348;2022-12-18T00:15:40;-1.70;99.90
16523;DHT22;19889;52.546;13.348;2022-12-18T00:18:07;-1.90;99.90
16523;DHT22;19889;52.546;13.348;2022-12-18T00:20:38;-1.90;99.90
16523;DHT22;19889;52.546;13.348;2022-12-18T00:23:05;-1.90;99.90
16523;DHT22;19889;52.546;13.348;2022-12-18T00:25:33;-2.00;99.90
16523;DHT22;19889;52.546;13.348;2022-12-18T00:28:01;-2.10;99.90
16523;DHT22;19889;52.546;13.348;2022-12-18T00:30:28;-1.90;99.90
16523;DHT22;19889;52.546;13.348;2022-12-18T00:32:55;-2.10;99.90
16523;DHT22;19889;52.546;13.348;2022-12-18T00:35:25;-2.10;99.90
16523;DHT22;19889;52.546;13.348;2022-12-18T00:37:53;-2.30;99.90
16523;DHT22;19889;52.546;13.348;2022-12-18T00:40:22;-2.10;99.90
16523;DHT22;19889;52.546;13.348;2022-12-18T00:42:49;-2.20;99.90
16523;DHT22;19889;52.546;13.348;2022-12-18T00:45:21;-2.20;99.90
16523;DHT22;19889;52.546;13.348;2022-12-18T00:47:51;-2.20;99.90
16523;DHT22;19889;52.546;13.348;2022-12-18T00:50:18;-2.10;99.90
16523;DHT22;19889;52.546;13.348;2022-12-18T00:52:45;-2.30;99.90
16523;DHT22;19889;52.546;13.348;2022-12-18T00:55:14;-2.00;99.90
16523;DHT22;19889;52.546;13.348;2022-12-18T00:57:41;-2.00;99.90
16523;DHT22;19889;52.546;13.348;2022-12-18T01:00:11;-2.00;99.90
16523;DHT22;19889;52.546;13.348;2022-12-18T01:02:38;-1.90;99.90
16523;DHT22;19889;52.546;13.348;2022-12-18T01:05:07;-2.00;99.90
16523;DHT22;19889;52.546;13.348;2022-12-18T01:07:34;-1.90;99.90
16523;DHT22;19889;52.546;13.348;2022-12-18T01:10:03;-1.60;99.90
16523;DHT22;19889;52.546;13.348;2022-12-18T01:12:31;-1.90;99.90
16523;DHT22;19889;52.546;13.348;2022-12-18T01:14:58;-1.90;99.90
16523;DHT22;19889;52.546;13.348;2022-12-18T01:17:25;-1.90;99.90
16523;DHT22;19889;52.546;13.348;2022-12-18T01:19:52;-2.00;99.90
16523;DHT22;19889;52.546;13.348;2022-12-18T01:22:19;-1.90;99.90
16523;DHT22;19889;52.546;13.348;2022-12-18T01:24:46;-1.90;99.90
16523;DHT22;19889;52.546;13.348;2022-12-18T01:27:13;-1.90;99.90
16523;DHT22;19889;52.546;13.348;2022-12-18T01:29:42;-2.00;99.90
16523;DHT22;19889;52.546;13.348;2022-12-18T01:32:09;-1.90;99.90
16523;DHT22;19889;52.546;13.348;2022-12-18T01:34:36;-2.00;99.90
16523;DHT22;19889;52.546;13.348;2022-12-18T01:37:03;-2.00;99.90
16523;DHT22;19889;52.546;13.348;2022-12-18T01:39:31;-2.10;99.90
16523;DHT22;19889;52.546;13.348;2022-12-18T01:42:03;-2.00;99.90
16523;DHT22;19889;52.546;13.348;2022-12-18T01:45:00;-2.00;99.90
16523;DHT22;19889;52.546;13.348;2022-12-18T01:47:32;-2.20;99.90
16523;DHT22;19889;52.546;13.348;2022-12-18T01:50:05;-2.00;99.90
16523;DHT22;19889;52.546;13.348;2022-12-18T01:52:33;-2.20;99.90
16523;DHT22;19889;52.546;13.348;2022-12-18T01:55:03;-2.00;99.90
16523;DHT22;19889;52.546;13.348;2022-12-18T01:57:31;-2.00;99.90
16523;DHT22;19889;52.546;13.348;2022-12-18T02:00:04;-1.80;99.90
16523;DHT22;19889;52.546;13.348;2022-12-18T02:02:44;-2.00;99.90
16523;DHT22;19889;52.546;13.348;2022-12-18T02:05:16;-1.70;99.90
16523;DHT22;19889;52.546;13.348;2022-12-18T02:07:51;-2.10;99.90
16523;DHT22;19889;52.546;13.348;2022-12-18T02:10:26;-2.10;99.90
16523;DHT22;19889;52.546;13.348;2022-12-18T02:12:58;-2.30;99.90
16523;DHT22;19889;52.546;13.348;2022-12-18T02:15:36;-2.10;99.90
16523;DHT22;19889;52.546;13.348;2022-12-18T02:18:09;-2.30;99.90
16523;DHT22;19889;52.546;13.348;2022-12-18T02:20:43;-1.60;99.90
16523;DHT22;19889;52.546;13.348;2022-12-18T02:23:21;-2.30;99.90
16523;DHT22;19889;52.546;13.348;2022-12-18T02:26:05;-2.40;99.90
16523;DHT22;19889;52.546;13.348;2022-12-18T02:28:36;-1.50;99.90
16523;DHT22;19889;52.546;13.348;2022-12-18T02:31:08;-2.20;99.90
16523;DHT22;19889;52.546;13.348;2022-12-18T02:33:38;-2.10;99.90
16523;DHT22;19889;52.546;13.348;2022-12-18T02:36:08;-2.30;99.90
16523;DHT22;19889;52.546;13.348;2022-12-18T02:38:37;-2.30;99.90
16523;DHT22;19889;52.546;13.348;2022-12-18T02:41:13;-2.20;99.90
16523;DHT22;19889;52.546;13.348;2022-12-18T02:43:46;-2.40;99.90
16523;DHT22;19889;52.546;13.348;2022-12-18T02:46:29;-2.50;99.90
16523;DHT22;19889;52.546;13.348;2022-12-18T02:49:08;-2.30;99.90
16523;DHT22;19889;52.546;13.348;2022-12-18T02:51:44;-2.40;99.90
16523;DHT22;19889;52.546;13.348;2022-12-18T02:54:23;-1.30;99.90
16523;DHT22;19889;52.546;13.348;2022-12-18T02:56:57;-0.90;99.90
16523;DHT22;19889;52.546;13.348;2022-12-18T02:59:31;-2.40;99.90
16523;DHT22;19889;52.546;13.348;2022-12-18T03:02:05;-1.90;99.90
16523;DHT22;19889;52.546;13.348;2022-12-18T03:04:39;-2.60;99.90
16523;DHT22;19889;52.546;13.348;2022-12-18T03:07:11;-2.60;99.90
16523;DHT22;19889;52.546;13.348;2022-12-18T03:09:42;-2.80;99.90
16523;DHT22;19889;52.546;13.348;2022-12-18T03:12:17;-2.60;99.90
16523;DHT22;19889;52.546;13.348;2022-12-18T03:14:57;-2.60;99.90
16523;DHT22;19889;52.546;13.348;2022-12-18T03:17:28;-2.70;99.90
16523;DHT22;19889;52.546;13.348;2022-12-18T03:20:06;-2.70;99.90
16523;DHT22;19889;52.546;13.348;2022-12-18T03:22:35;-2.70;99.90
16523;DHT22;19889;52.546;13.348;2022-12-18T03:25:07;-2.60;99.90
16523;DHT22;19889;52.546;13.348;2022-12-18T03:27:42;-2.60;99.90
16523;DHT22;19889;52.546;13.348;2022-12-18T03:30:13;-2.60;99.90
16523;DHT22;19889;52.546;13.348;2022-12-18T03:32:44;-2.60;99.90
16523;DHT22;19889;52.546;13.348;2022-12-18T03:35:18;-2.70;99.90
16523;DHT22;19889;52.546;13.348;2022-12-18T03:37:47;-2.40;99.90
16523;DHT22;19889;52.546;13.348;2022-12-18T03:40:14;-2.60;99.90
16523;DHT22;19889;52.546;13.348;2022-12-18T03:42:47;-1.60;99.90
16523;DHT22;19889;52.546;13.348;2022-12-18T03:45:22;-2.60;99.90
16523;DHT22;19889;52.546;13.348;2022-12-18T03:47:58;-2.50;99.90
16523;DHT22;19889;52.546;13.348;2022-12-18T03:50:37;-2.50;99.90
16523;DHT22;19889;52.546;13.348;2022-12-18T03:53:17;-2.50;99.90
16523;DHT22;19889;52.546;13.348;2022-12-18T03:55:51;-2.60;99.90
16523;DHT22;19889;52.546;13.348;2022-12-18T03:58:24;-2.60;99.90
16523;DHT22;19889;52.546;13.348;2022-12-18T04:01:06;-2.60;99.90
16523;DHT22;19889;52.546;13.348;2022-12-18T04:03:36;-2.60;99.90
16523;DHT22;19889;52.546;13.348;2022-12-18T04:06:07;-2.70;99.90
16523;DHT22;19889;52.546;13.348;2022-12-18T04:08:35;-2.70;99.90
16523;DHT22;19889;52.546;13.348;2022-12-18T04:11:05;-2.70;99.90
16523;DHT22;19889;52.546;13.348;2022-12-18T04:13:36;-2.70;99.90
16523;DHT22;19889;52.546;13.348;2022-12-18T04:16:07;-2.40;99.90
16523;DHT22;19889;52.546;13.348;2022-12-18T04:18:37;-2.60;99.90
16523;DHT22;19889;52.546;13.348;2022-12-18T04:21:04;-2.60;99.90
16523;DHT22;19889;52.546;13.348;2022-12-18T04:23:32;-2.70;99.90
16523;DHT22;19889;52.546;13.348;2022-12-18T04:25:59;-2.70;99.90
16523;DHT22;19889;52.546;13.348;2022-12-18T04:28:40;-2.60;99.90
16523;DHT22;19889;52.546;13.348;2022-12-18T04:31:08;-2.50;99.90
16523;DHT22;19889;52.546;13.348;2022-12-18T04:33:35;-2.80;99.90
16523;DHT22;19889;52.546;13.348;2022-12-18T04:36:03;-2.40;99.90
16523;DHT22;19889;52.546;13.348;2022-12-18T04:38:30;-2.70;99.90
16523;DHT22;19889;52.546;13.348;2022-12-18T04:41:04;-4.10;99.90
16523;DHT22;19889;52.546;13.348;2022-12-18T04:43:31;-2.70;99.90
16523;DHT22;19889;52.546;13.348;2022-12-18T04:46:04;-2.70;99.90
16523;DHT22;19889;52.546;13.348;2022-12-18T04:48:31;-2.70;99.90
16523;DHT22;19889;52.546;13.348;2022-12-18T04:50:58;-3.00;99.90
16523;DHT22;19889;52.546;13.348;2022-12-18T04:53:26;-2.80;99.90
16523;DHT22;19889;52.546;13.348;2022-12-18T04:56:03;-2.90;99.90
16523;DHT22;19889;52.546;13.348;2022-12-18T04:58:30;-3.00;99.90
16523;DHT22;19889;52.546;13.348;2022-12-18T05:00:57;-3.10;99.90
16523;DHT22;19889;52.546;13.348;2022-12-18T05:03:25;-2.90;99.90
16523;DHT22;19889;52.546;13.348;2022-12-18T05:05:52;-2.40;99.90
16523;DHT22;19889;52.546;13.348;2022-12-18T05:08:19;-3.20;99.90
16523;DHT22;19889;52.546;13.348;2022-12-18T05:10:46;-3.10;99.90
16523;DHT22;19889;52.546;13.348;2022-12-18T05:13:13;-3.10;99.90
16523;DHT22;19889;52.546;13.348;2022-12-18T05:15:40;-3.20;99.90
16523;DHT22;19889;52.546;13.348;2022-12-18T05:18:08;-2.60;99.90
16523;DHT22;19889;52.546;13.348;2022-12-18T05:20:37;-3.10;99.90
16523;DHT22;19889;52.546;13.348;2022-12-18T05:23:04;-3.10;99.90
16523;DHT22;19889;52.546;13.348;2022-12-18T05:25:31;-3.10;99.90
16523;DHT22;19889;52.546;13.348;2022-12-18T05:27:57;-3.20;99.90
16523;DHT22;19889;52.546;13.348;2022-12-18T05:30:24;-3.00;99.90
16523;DHT22;19889;52.546;13.348;2022-12-18T05:32:51;-3.10;99.90
16523;DHT22;19889;52.546;13.348;2022-12-18T05:35:18;-2.80;99.90
16523;DHT22;19889;52.546;13.348;2022-12-18T05:37:47;-3.10;99.90
16523;DHT22;19889;52.546;13.348;2022-12-18T05:40:14;-3.10;99.90
16523;DHT22;19889;52.546;13.348;2022-12-18T05:42:41;-1.90;99.90
16523;DHT22;19889;52.546;13.348;2022-12-18T05:45:08;-3.20;99.90
16523;DHT22;19889;52.546;13.348;2022-12-18T05:47:35;-3.20;99.90
16523;DHT22;19889;52.546;13.348;2022-12-18T05:50:03;-3.10;99.90
16523;DHT22;19889;52.546;13.348;2022-12-18T05:52:30;-3.10;99.90
16523;DHT22;19889;52.546;13.348;2022-12-18T05:54:59;-2.80;99.90
16523;DHT22;19889;52.546;13.348;2022-12-18T05:57:26;-3.10;99.90
16523;DHT22;19889;52.546;13.348;2022-12-18T05:59:53;-3.20;99.90
16523;DHT22;19889;52.546;13.348;2022-12-18T06:02:20;-3.20;99.90
16523;DHT22;19889;52.546;13.348;2022-12-18T06:04:47;-2.20;99.90
16523;DHT22;19889;52.546;13.348;2022-12-18T06:07:14;-3.20;99.90
16523;DHT22;19889;52.546;13.348;2022-12-18T06:09:41;-3.10;99.90
16523;DHT22;19889;52.546;13.348;2022-12-18T06:12:09;-3.10;99.90
16523;DHT22;19889;52.546;13.348;2022-12-18T06:14:37;-3.30;99.90
16523;DHT22;19889;52.546;13.348;2022-12-18T06:17:04;-3.20;99.90
16523;DHT22;19889;52.546;13.348;2022-12-18T06:19:31;-3.10;99.90
16523;DHT22;19889;52.546;13.348;2022-12-18T06:21:58;-3.30;99.90
16523;DHT22;19889;52.546;13.348;2022-12-18T06:24:25;-2.80;99.90
16523;DHT22;19889;52.546;13.348;2022-12-18T06:26:52;-3.10;99.90
16523;DHT22;19889;52.546;13.348;2022-12-18T06:29:20;-3.20;99.90
16523;DHT22;19889;52.546;13.348;2022-12-18T06:31:50;-3.20;99.90
16523;DHT22;19889;52.546;13.348;2022-12-18T06:34:17;-3.20;99.90
16523;DHT22;19889;52.546;13.348;2022-12-18T06:36:44;-3.30;99.90
16523;DHT22;19889;52.546;13.348;2022-12-18T06:39:11;-3.20;99.90
16523;DHT22;19889;52.546;13.348;2022-12-18T06:41:38;-3.50;99.90
16523;DHT22;19889;52.546;13.348;2022-12-18T06:44:05;-3.30;99.90
16523;DHT22;19889;52.546;13.348;2022-12-18T06:46:33;-3.40;99.90
16523;DHT22;19889;52.546;13.348;2022-12-18T06:49:00;-1.70;99.90
16523;DHT22;19889;52.546;13.348;2022-12-18T06:51:27;-3.50;99.90
16523;DHT22;19889;52.546;13.348;2022-12-18T06:53:54;-3.80;99.90
16523;DHT22;19889;52.546;13.348;2022-12-18T06:56:21;-2.70;99.90
16523;DHT22;19889;52.546;13.348;2022-12-18T06:58:49;-3.70;99.90
16523;DHT22;19889;52.546;13.348;2022-12-18T07:01:17;-2.80;99.90
16523;DHT22;19889;52.546;13.348;2022-12-18T07:03:45;-3.30;99.90
16523;DHT22;19889;52.546;13.348;2022-12-18T07:06:14;-3.30;99.90
16523;DHT22;19889;52.546;13.348;2022-12-18T07:08:41;-3.50;99.90
16523;DHT22;19889;52.546;13.348;2022-12-18T07:11:08;-3.50;99.90
16523;DHT22;19889;52.546;13.348;2022-12-18T07:13:35;-3.50;99.90
16523;DHT22;19889;52.546;13.348;2022-12-18T07:16:05;-3.50;99.90
16523;DHT22;19889;52.546;13.348;2022-12-18T07:18:32;-3.50;99.90
16523;DHT22;19889;52.546;13.348;2022-12-18T07:21:04;-3.60;99.90
16523;DHT22;19889;52.546;13.348;2022-12-18T07:23:32;-3.70;99.90
16523;DHT22;19889;52.546;13.348;2022-12-18T07:26:03;-3.50;99.90
16523;DHT22;19889;52.546;13.348;2022-12-18T07:28:31;-2.90;99.90
16523;DHT22;19889;52.546;13.348;2022-12-18T07:30:58;-3.30;99.90
16523;DHT22;19889;52.546;13.348;2022-12-18T07:33:25;-3.80;99.90
16523;DHT22;19889;52.546;13.348;2022-12-18T07:35:52;-3.80;99.90
16523;DHT22;19889;52.546;13.348;2022-12-18T07:38:21;-3.30;99.90
16523;DHT22;19889;52.546;13.348;2022-12-18T07:40:48;-3.80;99.90
16523;DHT22;19889;52.546;13.348;2022-12-18T07:45:43;-3.50;99.90
16523;DHT22;19889;52.546;13.348;2022-12-18T07:48:10;-3.60;99.90
16523;DHT22;19889;52.546;13.348;2022-12-18T07:50:37;-3.00;99.90
16523;DHT22;19889;52.546;13.348;2022-12-18T07:53:05;-3.40;99.90
16523;DHT22;19889;52.546;13.348;2022-12-18T07:55:33;-3.40;99.90
16523;DHT22;19889;52.546;13.348;2022-12-18T07:58:01;-3.50;99.90
16523;DHT22;19889;52.546;13.348;2022-12-18T08:00:28;-3.40;99.90
16523;DHT22;19889;52.546;13.348;2022-12-18T08:02:56;-3.30;99.90
16523;DHT22;19889;52.546;13.348;2022-12-18T08:05:23;-2.70;99.90
16523;DHT22;19889;52.546;13.348;2022-12-18T08:07:50;-3.30;99.90
16523;DHT22;19889;52.546;13.348;2022-12-18T08:10:17;-3.20;99.90
16523;DHT22;19889;52.546;13.348;2022-12-18T08:12:48;-3.10;99.90
16523;DHT22;19889;52.546;13.348;2022-12-18T08:15:15;-3.00;99.90
16523;DHT22;19889;52.546;13.348;2022-12-18T08:17:42;-3.00;99.90
16523;DHT22;19889;52.546;13.348;2022-12-18T08:20:10;-3.10;99.90
16523;DHT22;19889;52.546;13.348;2022-12-18T08:22:37;-2.90;99.90
16523;DHT22;19889;52.546;13.348;2022-12-18T08:25:05;-2.90;99.90
16523;DHT22;19889;52.546;13.348;2022-12-18T08:27:32;-2.90;99.90
16523;DHT22;19889;52.546;13.348;2022-12-18T08:30:01;-2.60;99.90
16523;DHT22;19889;52.546;13.348;2022-12-18T08:32:28;-3.00;99.90
16523;DHT22;19889;52.546;13.348;2022-12-18T08:34:55;-2.90;99.90
16523;DHT22;19889;52.546;13.348;2022-12-18T08:37:22;-2.90;99.90
16523;DHT22;19889;52.546;13.348;2022-12-18T08:39:49;-2.90;99.90
16523;DHT22;19889;52.546;13.348;2022-12-18T08:42:16;-2.90;99.90
16523;DHT22;19889;52.546;13.348;2022-12-18T08:45:02;-2.90;99.90
16523;DHT22;19889;52.546;13.348;2022-12-18T08:47:29;-2.90;99.90
16523;DHT22;19889;52.546;13.348;2022-12-18T08:49:56;-2.90;99.90
16523;DHT22;19889;52.546;13.348;2022-12-18T08:52:23;-2.90;99.90
16523;DHT22;19889;52.546;13.348;2022-12-18T08:54:50;-3.00;99.90
16523;DHT22;19889;52.546;13.348;2022-12-18T08:57:17;-2.90;99.90
16523;DHT22;19889;52.546;13.348;2022-12-18T08:59:44;-2.90;99.90
16523;DHT22;19889;52.546;13.348;2022-12-18T09:02:12;-3.10;99.90
16523;DHT22;19889;52.546;13.348;2022-12-18T09:04:39;-2.90;99.90
16523;DHT22;19889;52.546;13.348;2022-12-18T09:07:06;-3.00;99.90
16523;DHT22;19889;52.546;13.348;2022-12-18T09:09:35;-2.90;99.90
16523;DHT22;19889;52.546;13.348;2022-12-18T09:12:03;-2.80;99.90
16523;DHT22;19889;52.546;13.348;2022-12-18T09:14:30;-2.50;99.90
16523;DHT22;19889;52.546;13.348;2022-12-18T09:16:56;-2.50;99.90
16523;DHT22;19889;52.546;13.348;2022-12-18T09:19:25;-2.80;99.90
16523;DHT22;19889;52.546;13.348;2022-12-18T09:21:52;-2.80;99.90
16523;DHT22;19889;52.546;13.348;2022-12-18T09:24:19;-2.60;99.90
16523;DHT22;19889;52.546;13.348;2022-12-18T09:26:46;-2.80;99.90
16523;DHT22;19889;52.546;13.348;2022-12-18T09:29:13;-2.80;99.90
16523;DHT22;19889;52.546;13.348;2022-12-18T09:31:40;-2.90;99.90
16523;DHT22;19889;52.546;13.348;2022-12-18T09:34:07;-2.90;99.90
16523;DHT22;19889;52.546;13.348;2022-12-18T09:36:35;-2.90;99.90
16523;DHT22;19889;52.546;13.348;2022-12-18T09:39:02;-3.10;99.90
16523;DHT22;19889;52.546;13.348;2022-12-18T09:41:41;-2.90;99.90
16523;DHT22;19889;52.546;13.348;2022-12-18T09:44:16;-3.00;99.90
16523;DHT22;19889;52.546;13.348;2022-12-18T09:46:47;-3.00;99.90
16523;DHT22;19889;52.546;13.348;2022-12-18T09:49:17;-2.60;99.90
16523;DHT22;19889;52.546;13.348;2022-12-18T09:51:49;-3.10;99.90
16523;DHT22;19889;52.546;13.348;2022-12-18T09:54:22;-3.10;99.90
16523;DHT22;19889;52.546;13.348;2022-12-18T09:56:49;-3.10;99.90
16523;DHT22;19889;52.546;13.348;2022-12-18T09:59:21;-3.10;99.90
16523;DHT22;19889;52.546;13.348;2022-12-18T10:01:49;-2.80;99.90
16523;DHT22;19889;52.546;13.348;2022-12-18T10:04:16;-3.00;99.90
16523;DHT22;19889;52.546;13.348;2022-12-18T10:06:49;-2.90;99.90
16523;DHT22;19889;52.546;13.348;2022-12-18T10:09:27;-2.60;99.90
16523;DHT22;19889;52.546;13.348;2022-12-18T10:12:01;-2.90;99.90
16523;DHT22;19889;52.546;13.348;2022-12-18T10:14:35;-2.80;99.90
16523;DHT22;19889;52.546;13.348;2022-12-18T10:17:13;-2.80;99.90
16523;DHT22;19889;52.546;13.348;2022-12-18T10:19:49;-2.90;99.90
16523;DHT22;19889;52.546;13.348;2022-12-18T10:22:38;-2.70;99.90
16523;DHT22;19889;52.546;13.348;2022-12-18T10:25:17;-2.70;99.90
16523;DHT22;19889;52.546;13.348;2022-12-18T10:27:46;-2.60;99.90
16523;DHT22;19889;52.546;13.348;2022-12-18T10:30:15;-0.80;99.90
16523;DHT22;19889;52.546;13.348;2022-12-18T10:32:42;-2.50;99.90
16523;DHT22;19889;52.546;13.348;2022-12-18T10:35:17;-2.70;99.90
16523;DHT22;19889;52.546;13.348;2022-12-18T10:40:50;-2.50;99.90
16523;DHT22;19889;52.546;13.348;2022-12-18T10:43:21;-2.40;99.90
16523;DHT22;19889;52.546;13.348;2022-12-18T10:46:12;-2.50;99.90
16523;DHT22;19889;52.546;13.348;2022-12-18T10:48:49;-2.40;99.90
16523;DHT22;19889;52.546;13.348;2022-12-18T10:51:22;-2.30;99.90
16523;DHT22;19889;52.546;13.348;2022-12-18T10:53:56;-2.30;99.90
16523;DHT22;19889;52.546;13.348;2022-12-18T10:56:27;-2.50;99.90
16523;DHT22;19889;52.546;13.348;2022-12-18T10:58:57;-2.30;99.90
16523;DHT22;19889;52.546;13.348;2022-12-18T11:01:25;-2.20;99.90
16523;DHT22;19889;52.546;13.348;2022-12-18T11:04:01;-2.30;99.90
16523;DHT22;19889;52.546;13.348;2022-12-18T11:06:34;-2.20;99.90
16523;DHT22;19889;52.546;13.348;2022-12-18T11:09:03;-2.30;99.90
16523;DHT22;19889;52.546;13.348;2022-12-18T11:11:32;-2.10;99.90
16523;DHT22;19889;52.546;13.348;2022-12-18T11:14:03;-2.10;99.90
16523;DHT22;19889;52.546;13.348;2022-12-18T11:16:34;-2.20;99.90
16523;DHT22;19889;52.546;13.348;2022-12-18T11:19:18;-2.10;99.90
16523;DHT22;19889;52.546;13.348;2022-12-18T11:21:46;-2.00;99.90
16523;DHT22;19889;52.546;13.348;2022-12-18T11:24:20;-2.00;99.90
16523;DHT22;19889;52.546;13.348;2022-12-18T11:26:50;-2.00;99.90
16523;DHT22;19889;52.546;13.348;2022-12-18T11:29:19;-1.90;99.90
16523;DHT22;19889;52.546;13.348;2022-12-18T11:31:49;-1.90;99.90
16523;DHT22;19889;52.546;13.348;2022-12-18T11:34:24;-1.90;99.90
16523;DHT22;19889;52.546;13.348;2022-12-18T11:36:53;-1.90;99.90
16523;DHT22;19889;52.546;13.348;2022-12-18T11:39:27;-1.90;99.90
16523;DHT22;19889;52.546;13.348;2022-12-18T11:42:03;-1.50;99.90
16523;DHT22;19889;52.546;13.348;2022-12-18T11:44:45;-2.00;99.90
16523;DHT22;19889;52.546;13.348;2022-12-18T11:47:21;-2.00;99.90
16523;DHT22;19889;52.546;13.348;2022-12-18T11:49:52;-2.40;99.90
16523;DHT22;19889;52.546;13.348;2022-12-18T11:52:22;-2.00;99.90
16523;DHT22;19889;52.546;13.348;2022-12-18T11:54:52;-2.10;99.90
16523;DHT22;19889;52.546;13.348;2022-12-18T11:57:28;-1.90;99.90
16523;DHT22;19889;52.546;13.348;2022-12-18T12:00:04;-2.20;99.90
16523;DHT22;19889;52.546;13.348;2022-12-18T12:02:52;-2.40;99.90
16523;DHT22;19889;52.546;13.348;2022-12-18T12:05:29;-2.20;99.90
16523;DHT22;19889;52.546;13.348;2022-12-18T12:08:09;-2.30;99.90
16523;DHT22;19889;52.546;13.348;2022-12-18T12:10:46;-2.10;99.90
16523;DHT22;19889;52.546;13.348;2022-12-18T12:13:24;-2.10;99.90
16523;DHT22;19889;52.546;13.348;2022-12-18T12:16:00;-2.00;99.90
16523;DHT22;19889;52.546;13.348;2022-12-18T12:18:41;-2.00;99.90
16523;DHT22;19889;52.546;13.348;2022-12-18T12:21:16;-2.00;99.90
16523;DHT22;19889;52.546;13.348;2022-12-18T12:23:50;-2.00;99.90
16523;DHT22;19889;52.546;13.348;2022-12-18T12:26:24;-2.00;99.90
16523;DHT22;19889;52.546;13.348;2022-12-18T12:29:04;-1.90;99.90
16523;DHT22;19889;52.546;13.348;2022-12-18T12:32:00;-0.20;99.90
16523;DHT22;19889;52.546;13.348;2022-12-18T12:34:38;-1.90;99.90
16523;DHT22;19889;52.546;13.348;2022-12-18T12:37:19;-1.90;99.90
16523;DHT22;19889;52.546;13.348;2022-12-18T12:39:51;-2.00;99.90
16523;DHT22;19889;52.546;13.348;2022-12-18T12:42:29;-2.00;99.90
16523;DHT22;19889;52.546;13.348;2022-12-18T12:45:26;-1.90;99.90
16523;DHT22;19889;52.546;13.348;2022-12-18T12:47:56;-2.00;99.90
16523;DHT22;19889;52.546;13.348;2022-12-18T12:50:26;-1.90;99.90
16523;DHT22;19889;52.546;13.348;2022-12-18T12:52:54;-2.00;99.90
16523;DHT22;19889;52.546;13.348;2022-12-18T12:55:23;-2.00;99.90
16523;DHT22;19889;52.546;13.348;2022-12-18T12:57:57;-2.10;99.90
16523;DHT22;19889;52.546;13.348;2022-12-18T13:00:31;-2.00;99.90
16523;DHT22;19889;52.546;13.348;2022-12-18T13:03:08;-2.00;99.90
16523;DHT22;19889;52.546;13.348;2022-12-18T13:05:41;-2.00;99.90
16523;DHT22;19889;52.546;13.348;2022-12-18T13:08:11;-2.10;99.90
16523;DHT22;19889;52.546;13.348;2022-12-18T13:10:39;-2.20;99.90
16523;DHT22;19889;52.546;13.348;2022-12-18T13:13:08;-2.00;99.90
16523;DHT22;19889;52.546;13.348;2022-12-18T13:15:40;-2.00;99.90
16523;DHT22;19889;52.546;13.348;2022-12-18T13:18:17;-1.60;99.90
16523;DHT22;19889;52.546;13.348;2022-12-18T13:20:46;-2.00;99.90
16523;DHT22;19889;52.546;13.348;2022-12-18T13:23:29;-2.00;99.90
16523;DHT22;19889;52.546;13.348;2022-12-18T13:25:58;-1.90;99.90
16523;DHT22;19889;52.546;13.348;2022-12-18T13:28:50;-1.90;99.90
16523;DHT22;19889;52.546;13.348;2022-12-18T13:34:23;-1.80;99.90
16523;DHT22;19889;52.546;13.348;2022-12-18T13:36:53;-1.70;99.90
16523;DHT22;19889;52.546;13.348;2022-12-18T13:39:23;-1.70;99.90
16523;DHT22;19889;52.546;13.348;2022-12-18T13:41:53;-1.70;99.90
16523;DHT22;19889;52.546;13.348;2022-12-18T13:44:29;-1.70;99.90
16523;DHT22;19889;52.546;13.348;2022-12-18T13:46:57;-1.60;99.90
16523;DHT22;19889;52.546;13.348;2022-12-18T13:49:31;-0.90;99.90
16523;DHT22;19889;52.546;13.348;2022-12-18T13:52:03;-1.60;99.90
16523;DHT22;19889;52.546;13.348;2022-12-18T13:54:42;-1.70;99.90
16523;DHT22;19889;52.546;13.348;2022-12-18T13:57:26;-1.80;99.90
16523;DHT22;19889;52.546;13.348;2022-12-18T13:59:53;-0.50;99.90
16523;DHT22;19889;52.546;13.348;2022-12-18T14:02:22;-1.60;99.90
16523;DHT22;19889;52.546;13.348;2022-12-18T14:04:52;-1.70;99.90
16523;DHT22;19889;52.546;13.348;2022-12-18T14:07:21;-2.00;99.90
16523;DHT22;19889;52.546;13.348;2022-12-18T14:09:51;-1.40;99.90
16523;DHT22;19889;52.546;13.348;2022-12-18T14:12:21;-1.70;99.90
16523;DHT22;19889;52.546;13.348;2022-12-18T14:15:20;-1.70;99.90
16523;DHT22;19889;52.546;13.348;2022-12-18T14:17:50;-1.70;99.90
16523;DHT22;19889;52.546;13.348;2022-12-18T14:20:18;-1.80;99.90
16523;DHT22;19889;52.546;13.348;2022-12-18T14:22:48;-1.90;99.90
16523;DHT22;19889;52.546;13.348;2022-12-18T14:25:22;-1.80;99.90
16523;DHT22;19889;52.546;13.348;2022-12-18T14:27:52;-1.80;99.90
16523;DHT22;19889;52.546;13.348;2022-12-18T14:30:27;-2.10;99.90
16523;DHT22;19889;52.546;13.348;2022-12-18T14:33:04;-1.90;99.90
16523;DHT22;19889;52.546;13.348;2022-12-18T14:35:34;-1.90;99.90
16523;DHT22;19889;52.546;13.348;2022-12-18T14:38:22;-2.00;99.90
16523;DHT22;19889;52.546;13.348;2022-12-18T14:41:01;-1.90;99.90
16523;DHT22;19889;52.546;13.348;2022-12-18T14:43:31;-1.50;99.90
16523;DHT22;19889;52.546;13.348;2022-12-18T14:45:59;-2.10;99.90
16523;DHT22;19889;52.546;13.348;2022-12-18T14:48:36;-1.30;99.90
16523;DHT22;19889;52.546;13.348;2022-12-18T14:51:13;-1.80;99.90
16523;DHT22;19889;52.546;13.348;2022-12-18T14:53:43;-2.00;99.90
16523;DHT22;19889;52.546;13.348;2022-12-18T14:56:17;-1.90;99.90
16523;DHT22;19889;52.546;13.348;2022-12-18T14:58:49;-2.10;99.90
16523;DHT22;19889;52.546;13.348;2022-12-18T15:01:21;-2.20;99.90
16523;DHT22;19889;52.546;13.348;2022-12-18T15:03:50;-2.00;99.90
16523;DHT22;19889;52.546;13.348;2022-12-18T15:06:28;-2.00;99.90
16523;DHT22;19889;52.546;13.348;2022-12-18T15:08:57;-2.20;99.90
16523;DHT22;19889;52.546;13.348;2022-12-18T15:11:35;-1.90;99.90
16523;DHT22;19889;52.546;13.348;2022-12-18T15:14:21;-2.00;99.90
16523;DHT22;19889;52.546;13.348;2022-12-18T15:16:51;-2.00;99.90
16523;DHT22;19889;52.546;13.348;2022-12-18T15:19:19;-2.00;99.90
16523;DHT22;19889;52.546;13.348;2022-12-18T15:21:48;-2.30;99.90
16523;DHT22;19889;52.546;13.348;2022-12-18T15:24:29;-2.10;99.90
16523;DHT22;19889;52.546;13.348;2022-12-18T15:26:57;-1.30;99.90
16523;DHT22;19889;52.546;13.348;2022-12-18T15:29:24;-2.20;99.90
16523;DHT22;19889;52.546;13.348;2022-12-18T15:32:00;-2.20;99.90
16523;DHT22;19889;52.546;13.348;2022-12-18T15:34:27;-3.30;99.90
16523;DHT22;19889;52.546;13.348;2022-12-18T15:36:56;-2.20;99.90
16523;DHT22;19889;52.546;13.348;2022-12-18T15:39:23;-1.80;99.90
16523;DHT22;19889;52.546;13.348;2022-12-18T15:41:50;-2.10;99.90
16523;DHT22;19889;52.546;13.348;2022-12-18T15:44:37;-2.20;99.90
16523;DHT22;19889;52.546;13.348;2022-12-18T15:47:09;-2.10;99.90